This is the latest recevied weather packets stored in our database for station/object K5GHS-1. If no packets are shown the sender has not sent any weather packets the latest 1 day(s).
| Time | Temp. | Humidity | Pressure | Rain* | Wind** | Luminosity | Snow |
|---|---|---|---|---|---|---|---|
| 1778013826 | 32.22° C | 58% | 1002.4 hPa | 0 mm | 0 m/s | 449 W/m² | - |
| 1778013523 | 32.22° C | 59% | 1002.6 hPa | 0 mm | 0 m/s | 541 W/m² | - |
| 1778013219 | 32.22° C | 58% | 1002.8 hPa | 0 mm | 0.45 m/s, 248° | 258 W/m² | - |
| 1778012916 | 32.22° C | 59% | 1003.1 hPa | 0 mm | 0.45 m/s, 76° | 530 W/m² | - |
| 1778012612 | 32.22° C | 57% | 1002.8 hPa | 0 mm | 0 m/s | 668 W/m² | - |
| 1778012308 | 31.11° C | 60% | 1002.6 hPa | 0 mm | 0 m/s | 724 W/m² | - |
| 1778012006 | 31.67° C | 61% | 1002.7 hPa | 0 mm | 0.45 m/s, 136° | 156 W/m² | - |
| 1778011704 | 31.11° C | 60% | 1002.8 hPa | 0 mm | 0.89 m/s, 91° | 612 W/m² | - |
| 1778011401 | 31.11° C | 59% | 1002.7 hPa | 0 mm | 0.89 m/s, 190° | 611 W/m² | - |
| 1778011096 | 31.67° C | 60% | 1002.8 hPa | 0 mm | 0 m/s | 644 W/m² | - |
| 1778010794 | 31.11° C | 60% | 1003 hPa | 0 mm | 0 m/s | 673 W/m² | - |
| 1778010491 | 31.11° C | 60% | 1002.8 hPa | 0 mm | 0.45 m/s, 289° | 548 W/m² | - |
| 1778010188 | 31.11° C | 59% | 1002.8 hPa | 0 mm | 0.45 m/s, 109° | 475 W/m² | - |
| 1778009883 | 31.11° C | 61% | 1003.1 hPa | 0 mm | 0 m/s | 454 W/m² | - |
| 1778009581 | 31.11° C | 62% | 1003 hPa | 0 mm | 0.45 m/s, 43° | 566 W/m² | - |
| 1778009279 | 30.56° C | 61% | 1002.7 hPa | 0 mm | 0.89 m/s, 211° | 670 W/m² | - |
| 1778008977 | 30.56° C | 62% | 1002.7 hPa | 0 mm | 0 m/s | 639 W/m² | - |
| 1778008674 | 30° C | 64% | 1002.8 hPa | 0 mm | 0.45 m/s, 99° | 689 W/m² | - |
| 1778008373 | 30° C | 63% | 1003.1 hPa | 0 mm | 1.34 m/s, 95° | 636 W/m² | - |
| 1778008069 | 30° C | 64% | 1002.7 hPa | 0 mm | 1.34 m/s, 117° | 474 W/m² | - |
| 1778007764 | 30° C | 64% | 1002.7 hPa | 0 mm | 1.34 m/s, 197° | 523 W/m² | - |
| 1778007461 | 29.44° C | 66% | 1003.1 hPa | 0 mm | 0.45 m/s, 124° | 457 W/m² | - |
| 1778007157 | 29.44° C | 66% | 1003 hPa | 0 mm | 0.45 m/s, 140° | 424 W/m² | - |
| 1778006853 | 28.89° C | 66% | 1003.1 hPa | 0 mm | 1.79 m/s, 122° | 357 W/m² | - |
| 1778006551 | 28.89° C | 66% | 1003 hPa | 0 mm | 0.89 m/s, 144° | 355 W/m² | - |
* Rain latest hour (hover to see other rain measurements)
** Current wind speed in m/s (hover to see current wind gust speed)